createdAt,value
2022-08-25T00:00:50.269Z,2.8
2022-08-25T00:01:52.210Z,3.6
2022-08-25T00:02:55.589Z,3.1
2022-08-25T00:03:48.792Z,3.7
2022-08-25T00:04:53.601Z,3.9
2022-08-25T00:05:48.676Z,2.3
2022-08-25T00:06:49.189Z,2.5
2022-08-25T00:08:49.346Z,2.5
2022-08-25T00:09:48.614Z,2.8
2022-08-25T00:10:57.752Z,2.7
2022-08-25T00:11:49.995Z,3.8
2022-08-25T00:12:48.598Z,1.3
2022-08-25T00:13:54.264Z,2.8
2022-08-25T00:14:48.639Z,2.1
2022-08-25T00:15:49.570Z,2.6
2022-08-25T00:16:49.210Z,2.3
2022-08-25T00:17:49.234Z,2.4
2022-08-25T00:18:51.964Z,2.7
2022-08-25T00:19:48.704Z,3.0
2022-08-25T00:20:49.331Z,2.6
2022-08-25T00:21:48.822Z,1.7
2022-08-25T00:22:49.516Z,3.2
2022-08-25T00:25:48.832Z,2.6
2022-08-25T00:26:51.193Z,2.2
2022-08-25T00:27:48.750Z,4.9
2022-08-25T00:28:48.579Z,1.9
2022-08-25T00:29:48.581Z,4.0
2022-08-25T00:30:49.878Z,2.5
2022-08-25T00:32:52.540Z,4.2
2022-08-25T00:33:51.157Z,2.4
2022-08-25T00:34:48.595Z,2.8
2022-08-25T00:35:48.788Z,3.1
2022-08-25T00:36:51.942Z,3.0
2022-08-25T00:37:48.676Z,2.6
2022-08-25T00:38:50.135Z,2.6
2022-08-25T00:39:48.587Z,3.5
2022-08-25T00:40:58.623Z,2.3
2022-08-25T00:41:49.826Z,3.6
2022-08-25T00:42:48.737Z,2.6
2022-08-25T00:43:53.083Z,2.6
2022-08-25T00:44:48.634Z,2.9
2022-08-25T00:45:48.715Z,2.9
2022-08-25T00:46:51.349Z,4.0
2022-08-25T00:47:48.585Z,2.8
2022-08-25T00:48:52.508Z,1.3
2022-08-25T00:49:54.450Z,2.1
2022-08-25T00:50:48.581Z,2.3
2022-08-25T00:51:52.875Z,2.2
2022-08-25T00:52:52.720Z,1.9
2022-08-25T00:53:49.529Z,2.4
2022-08-25T00:54:50.594Z,2.9
2022-08-25T00:56:49.259Z,1.9
2022-08-25T00:57:56.587Z,3.3
2022-08-25T00:58:48.701Z,3.0
2022-08-25T00:59:48.848Z,3.1
2022-08-25T01:00:52.362Z,2.3
2022-08-25T01:01:49.840Z,1.7
2022-08-25T01:02:49.429Z,3.5
2022-08-25T01:03:48.589Z,2.3
2022-08-25T01:04:49.343Z,1.2
2022-08-25T01:06:50.052Z,2.1
2022-08-25T01:09:50.616Z,2.1
2022-08-25T01:10:50.554Z,2.3
2022-08-25T01:11:49.444Z,1.8
2022-08-25T01:13:53.781Z,1.9
2022-08-25T01:14:51.729Z,4.3
2022-08-25T01:15:53.737Z,2.6
2022-08-25T01:16:51.159Z,2.6
2022-08-25T01:17:51.423Z,1.4
2022-08-25T01:18:53.082Z,3.9
2022-08-25T01:19:49.057Z,2.1
2022-08-25T01:20:52.564Z,3.7
2022-08-25T01:22:55.124Z,1.9
2022-08-25T01:24:56.961Z,1.6
2022-08-25T01:25:57.758Z,2.3
2022-08-25T01:26:48.582Z,2.2
2022-08-25T01:27:48.579Z,1.8
2022-08-25T01:28:59.669Z,2.6
2022-08-25T01:30:49.062Z,1.7
2022-08-25T01:31:50.806Z,2.5
2022-08-25T01:32:49.389Z,2.6
2022-08-25T01:34:48.765Z,1.1
2022-08-25T01:35:48.977Z,3.2
2022-08-25T01:36:48.981Z,0.8
2022-08-25T01:37:48.674Z,2.4
2022-08-25T01:38:48.969Z,1.7
2022-08-25T01:39:48.737Z,3.3
2022-08-25T01:40:49.039Z,1.2
2022-08-25T01:42:00.364Z,1.6
2022-08-25T01:43:48.756Z,4.4
2022-08-25T01:44:49.457Z,1.5
2022-08-25T01:45:49.753Z,2.0
2022-08-25T01:46:48.687Z,2.4
2022-08-25T01:47:48.581Z,2.1
2022-08-25T01:48:48.538Z,2.4
2022-08-25T01:49:48.782Z,1.8
2022-08-25T01:50:48.567Z,2.0
2022-08-25T01:51:59.388Z,2.2
2022-08-25T01:53:48.643Z,2.0
2022-08-25T01:54:48.528Z,1.8
2022-08-25T01:55:57.958Z,1.7
2022-08-25T01:56:48.520Z,1.1
2022-08-25T01:57:48.825Z,2.4
2022-08-25T01:58:50.205Z,2.1
2022-08-25T01:59:48.520Z,1.8
2022-08-25T02:00:49.562Z,1.3
2022-08-25T02:01:48.653Z,2.5
2022-08-25T02:02:52.237Z,1.3
2022-08-25T02:03:50.494Z,2.7
2022-08-25T02:04:48.884Z,1.3
2022-08-25T02:05:49.306Z,1.8
2022-08-25T02:06:48.495Z,1.3
2022-08-25T02:07:48.815Z,1.9
2022-08-25T02:08:53.544Z,0.8
2022-08-25T02:09:48.566Z,2.6
2022-08-25T02:10:48.559Z,2.3
2022-08-25T02:14:48.935Z,1.7
2022-08-25T02:15:53.737Z,1.5
2022-08-25T02:16:51.237Z,2.0
2022-08-25T02:18:48.795Z,0.8
2022-08-25T02:19:48.533Z,0.9
2022-08-25T02:21:48.765Z,1.9
2022-08-25T02:22:53.103Z,1.6
2022-08-25T02:24:48.544Z,1.7
2022-08-25T02:25:48.576Z,2.2
2022-08-25T02:26:48.671Z,0.7
2022-08-25T02:27:48.569Z,2.2
2022-08-25T02:28:50.016Z,3.4
2022-08-25T02:29:48.599Z,2.0
2022-08-25T02:30:48.528Z,2.1
2022-08-25T02:32:48.544Z,1.2
2022-08-25T02:33:48.937Z,1.0
2022-08-25T02:34:48.591Z,1.1
2022-08-25T02:35:48.553Z,1.4
2022-08-25T02:36:48.520Z,1.5
2022-08-25T02:37:48.526Z,1.5
2022-08-25T02:38:48.807Z,1.4
2022-08-25T02:39:48.686Z,1.3
2022-08-25T02:40:51.764Z,1.6
2022-08-25T02:41:48.524Z,1.3
2022-08-25T02:42:49.235Z,1.3
2022-08-25T02:43:49.986Z,2.0
2022-08-25T02:44:48.464Z,1.3
2022-08-25T02:45:48.715Z,0.2
2022-08-25T02:46:49.047Z,1.5
2022-08-25T02:47:48.730Z,1.6
2022-08-25T02:48:49.377Z,1.5
2022-08-25T02:49:48.853Z,2.6
2022-08-25T02:50:52.699Z,1.7
2022-08-25T02:51:48.531Z,1.6
2022-08-25T02:52:50.730Z,2.5
2022-08-25T02:54:48.474Z,2.7
2022-08-25T02:55:48.653Z,2.3
2022-08-25T02:56:48.716Z,2.6
2022-08-25T02:57:48.858Z,3.0
2022-08-25T02:58:49.113Z,2.0
2022-08-25T02:59:48.677Z,4.2
2022-08-25T03:00:49.562Z,3.8
2022-08-25T03:01:48.523Z,4.4
2022-08-25T03:02:48.684Z,4.3
2022-08-25T03:03:50.053Z,4.6
2022-08-25T03:04:48.585Z,3.2
2022-08-25T03:05:49.083Z,3.2
2022-08-25T03:06:48.585Z,4.0
2022-08-25T03:07:48.573Z,3.0
2022-08-25T03:08:48.553Z,3.8
2022-08-25T03:09:48.690Z,3.4
2022-08-25T03:10:48.509Z,2.8
2022-08-25T03:11:48.559Z,2.7
2022-08-25T03:12:48.715Z,3.2
2022-08-25T03:13:51.342Z,4.5
2022-08-25T03:15:49.472Z,2.2
2022-08-25T03:16:48.578Z,2.3
2022-08-25T03:17:50.961Z,2.4
2022-08-25T03:18:48.944Z,4.4
2022-08-25T03:19:49.019Z,2.5
2022-08-25T03:20:48.520Z,2.1
2022-08-25T03:21:48.988Z,2.2
2022-08-25T03:22:49.018Z,2.8
2022-08-25T03:24:48.458Z,2.7
2022-08-25T03:25:57.890Z,2.5
2022-08-25T03:26:56.804Z,2.8
2022-08-25T03:27:49.607Z,4.1
2022-08-25T03:29:49.512Z,3.6
2022-08-25T03:30:48.682Z,4.3
2022-08-25T03:31:48.706Z,2.0
2022-08-25T03:32:48.769Z,2.7
2022-08-25T03:34:48.456Z,2.5
2022-08-25T03:35:48.532Z,2.1
2022-08-25T03:36:50.553Z,2.2
2022-08-25T03:38:48.427Z,2.4
2022-08-25T03:39:48.498Z,1.9
2022-08-25T03:40:49.036Z,1.9
2022-08-25T03:41:48.628Z,3.5
2022-08-25T03:42:48.496Z,3.0
2022-08-25T03:43:49.674Z,2.9
2022-08-25T03:45:49.204Z,3.2
2022-08-25T03:46:51.736Z,2.8
2022-08-25T03:48:49.163Z,3.0
2022-08-25T03:49:48.502Z,2.2
2022-08-25T03:50:52.215Z,1.7
2022-08-25T03:51:50.886Z,2.8
2022-08-25T03:52:53.960Z,0.8
2022-08-25T03:53:48.448Z,2.6
2022-08-25T03:54:48.982Z,1.4
2022-08-25T03:55:48.477Z,1.4
2022-08-25T03:56:48.523Z,1.2
2022-08-25T03:57:48.553Z,3.6
2022-08-25T03:58:48.498Z,2.0
2022-08-25T03:59:48.517Z,2.2
2022-08-25T04:00:48.603Z,2.1
2022-08-25T04:01:54.487Z,2.5
2022-08-25T04:02:49.109Z,1.4
2022-08-25T04:04:48.531Z,2.0
2022-08-25T04:05:48.498Z,3.3
2022-08-25T04:07:48.427Z,3.2
2022-08-25T04:08:49.051Z,2.5
2022-08-25T04:10:48.715Z,3.1
2022-08-25T04:11:49.290Z,2.6
2022-08-25T04:12:49.512Z,4.2
2022-08-25T04:14:50.082Z,3.4
2022-08-25T04:15:49.332Z,4.4
2022-08-25T04:16:48.580Z,1.9
2022-08-25T04:17:48.434Z,1.8
2022-08-25T04:18:50.096Z,1.4
2022-08-25T04:19:48.395Z,2.6
2022-08-25T04:20:48.453Z,1.1
2022-08-25T04:21:48.487Z,1.4
2022-08-25T04:22:48.502Z,1.0
2022-08-25T04:23:50.233Z,1.4
2022-08-25T04:24:48.449Z,1.5
2022-08-25T04:25:48.399Z,2.3
2022-08-25T04:27:48.538Z,2.1
2022-08-25T04:30:51.988Z,2.1
2022-08-25T04:33:49.615Z,2.1
2022-08-25T04:34:49.275Z,2.4
2022-08-25T04:36:52.616Z,2.6
2022-08-25T04:37:48.994Z,0.9
2022-08-25T04:38:50.188Z,1.2
2022-08-25T04:39:48.507Z,1.2
2022-08-25T04:40:57.449Z,1.8
2022-08-25T04:41:49.714Z,1.9
2022-08-25T04:42:48.493Z,2.2
2022-08-25T04:47:52.938Z,2.2
2022-08-25T04:49:48.470Z,2.3
2022-08-25T04:50:48.757Z,1.8
2022-08-25T04:51:48.446Z,3.5
2022-08-25T04:52:49.612Z,1.5
2022-08-25T04:53:48.456Z,1.2
2022-08-25T04:54:48.674Z,2.3
2022-08-25T04:56:49.671Z,0.9
2022-08-25T04:57:48.756Z,1.1
2022-08-25T04:58:48.472Z,3.1
2022-08-25T04:59:48.427Z,2.1
2022-08-25T05:00:49.672Z,1.4
2022-08-25T05:01:49.699Z,2.2
2022-08-25T05:02:48.442Z,3.1
2022-08-25T05:03:53.999Z,1.2
2022-08-25T05:04:48.434Z,2.3
2022-08-25T05:05:48.403Z,1.9
2022-08-25T05:07:48.423Z,0.6
2022-08-25T05:08:48.365Z,1.1
2022-08-25T05:09:48.391Z,1.4
2022-08-25T05:10:48.510Z,1.8
2022-08-25T05:11:48.422Z,2.4
2022-08-25T05:12:48.399Z,2.9
2022-08-25T05:13:51.424Z,1.6
2022-08-25T05:14:48.729Z,1.6
2022-08-25T05:15:55.886Z,2.2
2022-08-25T05:16:49.357Z,1.5
2022-08-25T05:17:51.581Z,1.5
2022-08-25T05:18:49.120Z,3.9
2022-08-25T05:19:48.468Z,5.4
2022-08-25T05:20:48.462Z,4.8
2022-08-25T05:21:48.442Z,5.0
2022-08-25T05:22:48.398Z,5.0
2022-08-25T05:23:49.148Z,3.1
2022-08-25T05:24:48.363Z,2.9
2022-08-25T05:25:49.230Z,4.2
2022-08-25T05:26:48.675Z,3.9
2022-08-25T05:27:48.353Z,3.9
2022-08-25T05:28:50.829Z,4.3
2022-08-25T05:29:48.569Z,4.3
2022-08-25T05:30:50.413Z,1.5
2022-08-25T05:31:50.831Z,1.5
2022-08-25T05:32:48.534Z,4.0
2022-08-25T05:33:49.014Z,4.8
2022-08-25T05:34:48.428Z,2.9
2022-08-25T05:35:48.388Z,2.1
2022-08-25T05:36:49.220Z,2.7
2022-08-25T05:37:48.701Z,4.1
2022-08-25T05:38:49.399Z,4.2
2022-08-25T05:39:48.680Z,3.5
2022-08-25T05:40:48.479Z,5.2
2022-08-25T05:41:48.513Z,6.2
2022-08-25T05:42:48.423Z,3.8
2022-08-25T05:43:50.899Z,4.6
2022-08-25T05:44:48.394Z,4.6
2022-08-25T05:45:48.473Z,3.7
2022-08-25T05:46:48.366Z,4.4
2022-08-25T05:47:49.025Z,7.0
2022-08-25T05:48:49.156Z,2.6
2022-08-25T05:49:49.318Z,3.4
2022-08-25T05:50:55.476Z,3.3
2022-08-25T05:51:48.478Z,3.3
2022-08-25T05:52:48.336Z,4.6
2022-08-25T05:53:50.412Z,2.8
2022-08-25T05:54:48.329Z,3.7
2022-08-25T05:55:48.958Z,2.5
2022-08-25T05:56:48.641Z,5.1
2022-08-25T05:57:48.935Z,3.5
2022-08-25T05:58:48.808Z,5.7
2022-08-25T05:59:48.372Z,6.6
2022-08-25T06:00:49.073Z,5.2
2022-08-25T06:01:57.779Z,10.8
2022-08-25T06:02:49.786Z,10.8
2022-08-25T06:03:48.833Z,4.5
2022-08-25T06:04:48.443Z,3.9
2022-08-25T06:05:48.637Z,4.6
2022-08-25T06:06:48.982Z,4.3
2022-08-25T06:07:50.583Z,3.8
2022-08-25T06:08:48.438Z,4.5
2022-08-25T06:09:50.099Z,7.6
2022-08-25T06:10:53.121Z,4.4
2022-08-25T06:11:54.062Z,4.4
2022-08-25T06:12:50.139Z,5.2
2022-08-25T06:13:48.442Z,6.0
2022-08-25T06:14:49.650Z,5.9
2022-08-25T06:15:49.222Z,3.4
2022-08-25T06:16:51.579Z,5.4
2022-08-25T06:17:49.543Z,7.8
2022-08-25T06:18:48.344Z,7.0
2022-08-25T06:19:48.393Z,7.2
2022-08-25T06:20:48.502Z,6.7
2022-08-25T06:21:48.380Z,7.5
2022-08-25T06:22:48.765Z,7.8
2022-08-25T06:23:49.382Z,10.5
2022-08-25T06:24:48.720Z,8.5
2022-08-25T06:25:53.008Z,10.0
2022-08-25T06:26:48.318Z,9.7
2022-08-25T06:27:48.328Z,9.6
2022-08-25T06:28:48.413Z,9.2
2022-08-25T06:29:48.361Z,9.9
2022-08-25T06:30:48.855Z,10.1
2022-08-25T06:31:50.174Z,9.4
2022-08-25T06:32:49.427Z,9.0
2022-08-25T06:33:48.562Z,7.4
2022-08-25T06:34:48.433Z,8.5
2022-08-25T06:35:48.298Z,10.3
2022-08-25T06:36:48.946Z,10.0
2022-08-25T06:37:48.583Z,11.1
2022-08-25T06:38:48.850Z,8.8
2022-08-25T06:39:48.350Z,12.8
2022-08-25T06:40:49.775Z,8.9
2022-08-25T06:41:52.852Z,10.4
2022-08-25T06:42:50.743Z,11.0
2022-08-25T06:43:51.806Z,12.4
2022-08-25T06:44:48.354Z,12.1
2022-08-25T06:45:48.689Z,12.5
2022-08-25T06:46:48.443Z,17.4
2022-08-25T06:47:48.384Z,15.4
2022-08-25T06:48:48.932Z,19.4
2022-08-25T06:49:48.354Z,26.5
2022-08-25T06:50:48.547Z,30.3
2022-08-25T06:51:49.054Z,26.3
2022-08-25T06:52:48.304Z,26.3
2022-08-25T06:53:50.351Z,26.6
2022-08-25T06:54:49.086Z,25.5
2022-08-25T06:55:57.992Z,24.3
2022-08-25T06:56:49.593Z,24.3
2022-08-25T06:57:48.708Z,20.1
2022-08-25T06:58:49.354Z,20.1
2022-08-25T06:59:48.485Z,19.9
2022-08-25T07:00:48.361Z,21.7
2022-08-25T07:01:49.592Z,19.9
2022-08-25T07:02:48.344Z,24.3
2022-08-25T07:03:48.660Z,19.2
2022-08-25T07:04:48.481Z,18.9
2022-08-25T07:05:53.790Z,14.8
2022-08-25T07:06:48.657Z,15.7
2022-08-25T07:07:48.335Z,16.8
2022-08-25T07:08:49.068Z,17.6
2022-08-25T07:09:48.399Z,22.3
2022-08-25T07:10:48.902Z,20.4
2022-08-25T07:11:48.867Z,19.2
2022-08-25T07:12:48.320Z,16.6
2022-08-25T07:13:48.741Z,19.4
2022-08-25T07:15:03.460Z,16.7
2022-08-25T07:15:53.799Z,21.9
2022-08-25T07:16:50.384Z,15.1
2022-08-25T07:17:49.034Z,19.8
2022-08-25T07:18:49.602Z,17.2
2022-08-25T07:19:48.267Z,15.9
2022-08-25T07:20:48.830Z,17.1
2022-08-25T07:21:52.875Z,16.1
2022-08-25T07:22:48.522Z,22.5
2022-08-25T07:23:48.358Z,19.5
2022-08-25T07:24:48.335Z,21.8
2022-08-25T07:25:48.690Z,20.6
2022-08-25T07:26:48.669Z,19.6
2022-08-25T07:27:48.408Z,16.8
2022-08-25T07:28:48.892Z,19.4
2022-08-25T07:29:50.297Z,18.6
2022-08-25T07:32:48.399Z,15.7
2022-08-25T07:33:57.697Z,17.0
2022-08-25T07:34:57.656Z,16.0
2022-08-25T07:35:48.525Z,16.2
2022-08-25T07:36:48.347Z,16.0
2022-08-25T07:37:52.444Z,14.9
2022-08-25T07:38:48.308Z,17.6
2022-08-25T07:39:48.360Z,35.5
2022-08-25T07:40:54.710Z,42.5
2022-08-25T07:41:48.309Z,43.4
2022-08-25T07:42:50.031Z,41.6
2022-08-25T07:43:48.672Z,40.2
2022-08-25T07:44:48.248Z,40.4
2022-08-25T07:45:49.450Z,39.0
2022-08-25T07:47:48.509Z,43.1
2022-08-25T07:49:48.987Z,29.3
2022-08-25T07:50:49.518Z,27.6
2022-08-25T07:52:03.608Z,23.1
2022-08-25T07:52:53.876Z,22.7
2022-08-25T07:53:48.304Z,18.8
2022-08-25T07:54:48.300Z,23.6
2022-08-25T07:55:48.542Z,16.5
2022-08-25T07:56:48.370Z,20.5
2022-08-25T07:57:50.924Z,16.4
2022-08-25T07:58:48.981Z,15.4
2022-08-25T07:59:49.784Z,14.2
2022-08-25T08:00:52.277Z,12.4
2022-08-25T08:01:48.332Z,15.2
2022-08-25T08:02:48.836Z,12.4
2022-08-25T08:03:51.158Z,13.5
2022-08-25T08:04:50.285Z,15.8
2022-08-25T08:05:48.786Z,13.5
2022-08-25T08:06:48.340Z,15.7
2022-08-25T08:07:48.319Z,14.3
2022-08-25T08:08:50.532Z,18.7
2022-08-25T08:09:56.216Z,17.2
2022-08-25T08:11:03.290Z,15.6
2022-08-25T08:11:54.482Z,16.4
2022-08-25T08:12:48.271Z,17.1
2022-08-25T08:13:50.776Z,17.9
2022-08-25T08:14:48.647Z,15.0
2022-08-25T08:15:49.877Z,17.2
2022-08-25T08:16:48.561Z,15.9
2022-08-25T08:17:48.364Z,16.4
2022-08-25T08:18:49.389Z,16.6
2022-08-25T08:19:48.311Z,16.3
2022-08-25T08:20:49.734Z,17.6
2022-08-25T08:22:48.390Z,16.8
2022-08-25T08:23:50.390Z,19.2
2022-08-25T08:24:54.965Z,14.7
2022-08-25T08:25:48.344Z,16.4
2022-08-25T08:26:58.286Z,14.0
2022-08-25T08:27:48.956Z,13.9
2022-08-25T08:28:52.162Z,13.8
2022-08-25T08:29:48.360Z,19.3
2022-08-25T08:30:53.144Z,16.7
2022-08-25T08:31:48.948Z,14.1
2022-08-25T08:33:08.545Z,12.9
2022-08-25T08:33:48.733Z,15.5
2022-08-25T08:34:51.323Z,15.9
2022-08-25T08:35:48.312Z,15.9
2022-08-25T08:36:48.338Z,16.1
2022-08-25T08:37:48.348Z,13.8
2022-08-25T08:38:49.591Z,15.6
2022-08-25T08:39:48.301Z,19.3
2022-08-25T08:41:15.471Z,11.3
2022-08-25T08:42:12.131Z,11.3
2022-08-25T08:43:04.391Z,11.5
2022-08-25T08:43:51.973Z,12.1
2022-08-25T08:45:03.402Z,13.7
2022-08-25T08:45:53.162Z,10.8
2022-08-25T08:47:02.792Z,14.3
2022-08-25T08:49:01.684Z,11.1
2022-08-25T08:49:51.265Z,12.2
2022-08-25T08:51:04.756Z,13.4
2022-08-25T08:51:54.358Z,14.6
2022-08-25T08:53:52.402Z,22.1
2022-08-25T08:54:57.094Z,59.2
2022-08-25T08:55:53.055Z,83.1
2022-08-25T08:56:51.209Z,76.5
2022-08-25T08:57:53.457Z,82.3
2022-08-25T08:58:54.238Z,77.2
2022-08-25T08:59:52.369Z,79.6
2022-08-25T09:01:56.805Z,65.4
2022-08-25T09:02:52.823Z,59.3
2022-08-25T09:03:55.191Z,46.4
2022-08-25T09:04:56.282Z,37.2
2022-08-25T09:05:51.859Z,42.6
2022-08-25T09:06:50.348Z,37.3
2022-08-25T09:07:55.096Z,37.4
2022-08-25T09:08:49.072Z,54.5
2022-08-25T09:09:48.708Z,73.3
2022-08-25T09:10:55.318Z,65.3
2022-08-25T09:11:58.963Z,66.2
2022-08-25T09:13:04.960Z,69.2
2022-08-25T09:14:06.181Z,68.2
2022-08-25T09:14:56.422Z,69.0
2022-08-25T09:16:20.537Z,69.1
2022-08-25T09:18:04.909Z,65.5
2022-08-25T09:18:57.593Z,71.5
2022-08-25T09:20:18.654Z,73.2
2022-08-25T09:21:02.140Z,71.5
2022-08-25T09:22:01.039Z,76.5
2022-08-25T09:23:01.389Z,78.1
2022-08-25T09:24:06.191Z,76.4
2022-08-25T09:24:59.317Z,76.2
2022-08-25T09:25:54.031Z,78.2
2022-08-25T09:27:00.845Z,76.8
2022-08-25T09:28:03.194Z,74.8
2022-08-25T09:28:52.458Z,74.2
2022-08-25T09:30:06.275Z,75.5
2022-08-25T09:30:58.647Z,76.7
2022-08-25T09:31:49.780Z,86.2
2022-08-25T09:32:52.634Z,88.2
2022-08-25T09:33:48.366Z,93.6
2022-08-25T09:34:50.374Z,87.3
2022-08-25T09:35:49.405Z,74.3
2022-08-25T09:36:50.995Z,77.3
2022-08-25T09:37:58.814Z,75.8
2022-08-25T09:38:48.328Z,72.7
2022-08-25T09:39:48.276Z,69.4
2022-08-25T09:40:52.375Z,71.2
2022-08-25T09:41:52.246Z,64.7
2022-08-25T09:42:51.413Z,67.1
2022-08-25T09:43:55.162Z,65.2
2022-08-25T09:44:49.471Z,65.1
2022-08-25T09:45:51.886Z,68.8
2022-08-25T09:47:03.441Z,71.1
2022-08-25T09:48:56.818Z,71.1
2022-08-25T09:51:48.565Z,20.9
2022-08-25T09:52:53.499Z,22.6
2022-08-25T09:53:55.194Z,24.0
2022-08-25T09:56:55.488Z,32.7
2022-08-25T09:58:48.804Z,49.9
2022-08-25T09:59:57.451Z,48.6
2022-08-25T10:01:06.297Z,47.3
2022-08-25T10:04:00.237Z,52.2
2022-08-25T10:04:48.414Z,61.0
2022-08-25T10:08:59.579Z,63.4
2022-08-25T10:09:55.571Z,57.3
2022-08-25T10:11:49.031Z,70.5
2022-08-25T10:13:52.356Z,85.1
2022-08-25T10:14:49.145Z,73.3
2022-08-25T10:15:58.573Z,69.1
2022-08-25T10:16:50.118Z,72.6
2022-08-25T10:17:48.590Z,76.0
2022-08-25T10:19:06.876Z,79.1
2022-08-25T10:19:48.206Z,83.3
2022-08-25T10:21:07.560Z,98.7
2022-08-25T10:22:05.790Z,125.6
2022-08-25T10:22:50.428Z,111.0
2022-08-25T10:23:51.779Z,107.5
2022-08-25T10:24:49.694Z,105.6
2022-08-25T10:28:01.589Z,106.7
2022-08-25T10:29:05.962Z,107.2
2022-08-25T10:30:04.821Z,96.4
2022-08-25T10:31:00.851Z,102.5
2022-08-25T10:32:00.578Z,107.0
2022-08-25T10:32:57.820Z,98.3
2022-08-25T10:34:05.069Z,98.8
2022-08-25T10:34:52.652Z,90.3
2022-08-25T10:36:06.708Z,100.8
2022-08-25T10:37:00.297Z,99.7
2022-08-25T10:38:00.765Z,99.3
2022-08-25T10:38:52.454Z,97.9
2022-08-25T10:40:01.536Z,98.3
2022-08-25T10:40:58.147Z,95.3
2022-08-25T10:42:02.892Z,100.1
2022-08-25T10:42:56.272Z,97.0
2022-08-25T10:44:00.453Z,90.2
2022-08-25T10:45:16.625Z,96.6
2022-08-25T10:45:54.709Z,87.1
2022-08-25T10:46:54.300Z,92.6
2022-08-25T10:47:56.313Z,94.3
2022-08-25T10:49:06.102Z,94.4
2022-08-25T10:49:52.443Z,87.5
2022-08-25T10:50:59.546Z,83.0
2022-08-25T10:51:57.915Z,86.8
2022-08-25T10:53:01.783Z,78.0
2022-08-25T10:53:53.521Z,80.9
2022-08-25T10:54:58.293Z,84.3
2022-08-25T10:55:56.083Z,77.5
2022-08-25T10:58:04.905Z,90.0
2022-08-25T10:58:56.775Z,96.7
2022-08-25T11:00:01.975Z,104.4
2022-08-25T11:00:59.660Z,109.6
2022-08-25T11:02:06.099Z,161.0
2022-08-25T11:03:06.283Z,156.9
2022-08-25T11:04:00.686Z,133.1
2022-08-25T11:04:59.684Z,136.6
2022-08-25T11:05:54.715Z,140.3
2022-08-25T11:06:54.640Z,122.1
2022-08-25T11:07:51.988Z,128.0
2022-08-25T11:08:54.160Z,121.9
2022-08-25T11:10:55.508Z,120.1
2022-08-25T11:13:54.605Z,113.1
2022-08-25T11:14:53.695Z,104.3
2022-08-25T11:16:56.607Z,72.7
2022-08-25T11:19:50.812Z,69.9
2022-08-25T11:21:52.476Z,69.4
2022-08-25T11:22:55.483Z,69.1
2022-08-25T11:24:03.384Z,71.8
2022-08-25T11:24:57.422Z,68.1
2022-08-25T11:25:53.256Z,67.0
2022-08-25T11:26:55.848Z,70.3
2022-08-25T11:28:04.485Z,72.9
2022-08-25T11:28:55.704Z,67.5
2022-08-25T11:29:59.765Z,70.5
2022-08-25T11:30:49.033Z,65.3
2022-08-25T11:31:53.387Z,65.0
2022-08-25T11:32:52.601Z,69.3
2022-08-25T11:33:51.223Z,62.7
2022-08-25T11:34:48.233Z,59.3
2022-08-25T11:35:59.754Z,57.2
2022-08-25T11:36:57.878Z,58.6
2022-08-25T11:40:07.276Z,56.9
2022-08-25T11:41:04.520Z,55.5
2022-08-25T11:41:56.758Z,59.7
2022-08-25T11:42:58.128Z,60.5
2022-08-25T11:44:05.068Z,60.3
2022-08-25T11:45:02.840Z,56.6
2022-08-25T11:46:01.748Z,56.0
2022-08-25T11:46:59.919Z,56.6
2022-08-25T11:47:57.870Z,59.6
2022-08-25T11:49:06.224Z,57.2
2022-08-25T11:49:57.017Z,52.3
2022-08-25T11:51:50.528Z,54.0
2022-08-25T11:52:55.536Z,52.4
2022-08-25T11:53:48.625Z,55.1
2022-08-25T11:54:48.689Z,52.1
2022-08-25T11:55:53.946Z,53.2
2022-08-25T11:57:04.389Z,50.0
2022-08-25T11:58:52.439Z,58.6
2022-08-25T12:00:02.542Z,50.6
2022-08-25T12:00:48.193Z,50.5
2022-08-25T12:01:57.111Z,55.6
2022-08-25T12:02:50.751Z,50.6
2022-08-25T12:04:06.697Z,54.8
2022-08-25T12:06:02.733Z,44.0
2022-08-25T12:07:06.077Z,41.9
2022-08-25T12:08:08.913Z,39.9
2022-08-25T12:08:59.955Z,46.7
2022-08-25T12:09:57.319Z,41.3
2022-08-25T12:11:00.720Z,48.4
2022-08-25T12:11:54.791Z,45.5
2022-08-25T12:12:58.947Z,56.1
2022-08-25T12:13:50.747Z,55.3
2022-08-25T12:14:48.541Z,53.0
2022-08-25T12:15:58.004Z,61.8
2022-08-25T12:16:56.874Z,60.1
2022-08-25T12:19:53.718Z,62.7
2022-08-25T12:20:57.722Z,64.6
2022-08-25T12:21:48.344Z,69.8
2022-08-25T12:25:51.250Z,64.5
2022-08-25T12:26:54.072Z,62.7
2022-08-25T12:28:05.102Z,60.1
2022-08-25T12:28:56.876Z,58.3
2022-08-25T12:29:55.195Z,55.7
2022-08-25T12:30:56.252Z,54.4
2022-08-25T12:32:07.081Z,54.2
2022-08-25T12:32:56.695Z,56.3
2022-08-25T12:34:03.950Z,54.3
2022-08-25T12:35:57.946Z,49.2
2022-08-25T12:36:58.548Z,52.6
2022-08-25T12:37:58.665Z,46.4
2022-08-25T12:38:52.076Z,51.5
2022-08-25T12:40:00.787Z,51.1
2022-08-25T12:41:06.733Z,52.8
2022-08-25T12:45:50.175Z,45.6
2022-08-25T12:46:48.322Z,51.1
2022-08-25T12:47:50.334Z,52.9
2022-08-25T12:48:56.894Z,47.2
2022-08-25T12:49:48.608Z,47.1
2022-08-25T12:51:59.462Z,55.6
2022-08-25T12:52:48.997Z,46.4
2022-08-25T12:53:55.122Z,47.0
2022-08-25T12:54:54.743Z,46.0
2022-08-25T12:55:57.694Z,47.9
2022-08-25T12:56:56.469Z,47.5
2022-08-25T13:01:09.273Z,41.8
2022-08-25T13:02:03.084Z,40.1
2022-08-25T13:03:05.247Z,45.3
2022-08-25T13:04:57.720Z,39.0
2022-08-25T13:06:05.960Z,31.3
2022-08-25T13:10:06.025Z,31.4
2022-08-25T13:10:54.374Z,33.6
2022-08-25T13:11:51.225Z,36.7
2022-08-25T13:12:53.324Z,38.1
2022-08-25T13:13:51.896Z,39.4
2022-08-25T13:14:57.664Z,32.9
2022-08-25T13:15:58.602Z,36.9
2022-08-25T13:16:58.301Z,36.8
2022-08-25T13:19:48.056Z,47.7
2022-08-25T13:20:50.417Z,49.1
2022-08-25T13:21:49.352Z,47.1
2022-08-25T13:22:56.724Z,46.5
2022-08-25T13:24:51.250Z,45.2
2022-08-25T13:26:52.355Z,43.0
2022-08-25T13:27:53.602Z,37.7
2022-08-25T13:30:58.046Z,29.9
2022-08-25T13:32:48.191Z,28.2
2022-08-25T13:33:58.319Z,27.9
2022-08-25T13:36:00.525Z,23.2
2022-08-25T13:36:59.029Z,23.0
2022-08-25T13:38:50.181Z,17.3
2022-08-25T13:39:56.355Z,16.8
2022-08-25T13:40:48.095Z,14.5
2022-08-25T13:41:54.532Z,10.9
2022-08-25T13:42:55.526Z,12.8
2022-08-25T13:43:48.222Z,14.7
2022-08-25T13:45:50.529Z,14.4
2022-08-25T13:46:48.952Z,12.8
2022-08-25T13:48:49.676Z,14.5
2022-08-25T13:49:49.083Z,11.4
2022-08-25T13:51:55.403Z,14.7
2022-08-25T13:53:55.022Z,15.1
2022-08-25T13:56:48.058Z,10.7
2022-08-25T13:58:48.017Z,9.8
2022-08-25T14:02:51.559Z,11.1
2022-08-25T14:04:51.503Z,8.8
2022-08-25T14:05:48.053Z,10.4
2022-08-25T14:06:48.028Z,10.8
2022-08-25T14:11:56.735Z,9.6
2022-08-25T14:15:01.113Z,9.5
2022-08-25T14:20:51.772Z,9.2
2022-08-25T14:21:49.706Z,8.0
2022-08-25T14:22:48.567Z,7.7
2022-08-25T14:24:48.231Z,9.5
2022-08-25T14:25:50.141Z,9.5
2022-08-25T14:26:54.415Z,7.6
2022-08-25T14:28:07.388Z,10.2
2022-08-25T14:28:49.727Z,10.2
2022-08-25T14:29:51.035Z,9.4
2022-08-25T14:30:52.385Z,8.7
2022-08-25T14:31:48.447Z,10.3
2022-08-25T14:32:48.030Z,8.8
2022-08-25T14:33:54.682Z,9.2
2022-08-25T14:34:48.041Z,9.2
2022-08-25T14:35:50.381Z,10.7
2022-08-25T14:36:48.714Z,11.9
2022-08-25T14:37:49.259Z,8.9
2022-08-25T14:38:48.012Z,8.5
2022-08-25T14:39:48.110Z,10.7
2022-08-25T14:40:48.691Z,12.2
2022-08-25T14:41:52.557Z,9.2
2022-08-25T14:42:48.290Z,11.4
2022-08-25T14:43:48.248Z,8.4
2022-08-25T14:44:47.920Z,8.7
2022-08-25T14:46:52.676Z,6.6
2022-08-25T14:47:49.892Z,7.2
2022-08-25T14:48:52.334Z,8.6
2022-08-25T14:49:50.173Z,7.0
2022-08-25T14:50:48.080Z,7.3
2022-08-25T14:53:48.449Z,7.5
2022-08-25T14:55:49.419Z,4.5
2022-08-25T14:56:49.436Z,5.7
2022-08-25T14:57:48.080Z,7.2
2022-08-25T15:03:51.022Z,5.8
2022-08-25T15:05:48.071Z,6.4
2022-08-25T15:07:57.265Z,6.5
2022-08-25T15:08:57.728Z,8.1
2022-08-25T15:10:47.904Z,8.0
2022-08-25T15:12:48.212Z,6.4
2022-08-25T15:16:51.124Z,7.5
2022-08-25T15:17:50.263Z,9.0
2022-08-25T15:19:47.940Z,6.5
2022-08-25T15:21:49.804Z,7.5
2022-08-25T15:22:48.381Z,5.0
2022-08-25T15:23:47.925Z,9.6
2022-08-25T15:24:47.982Z,9.5
2022-08-25T15:25:52.881Z,10.3
2022-08-25T15:27:47.904Z,6.8
2022-08-25T15:29:48.077Z,6.4
2022-08-25T15:32:48.483Z,7.9
2022-08-25T15:33:48.244Z,9.5
2022-08-25T15:35:48.008Z,7.4
2022-08-25T15:36:48.705Z,6.2
2022-08-25T15:37:48.505Z,8.8
2022-08-25T15:38:48.745Z,5.5
2022-08-25T15:39:49.049Z,7.5
2022-08-25T15:42:47.968Z,8.8
2022-08-25T15:43:47.909Z,7.7
2022-08-25T15:44:53.051Z,6.0
2022-08-25T15:45:50.268Z,6.7
2022-08-25T15:46:49.997Z,5.5
2022-08-25T15:49:47.949Z,4.5
2022-08-25T15:51:47.997Z,6.8
2022-08-25T15:59:48.091Z,9.4
2022-08-25T16:00:56.169Z,8.8
2022-08-25T16:01:48.770Z,6.0
2022-08-25T16:02:48.030Z,13.6
2022-08-25T16:03:48.080Z,11.9
2022-08-25T16:06:47.971Z,16.8
2022-08-25T16:08:48.464Z,13.6
2022-08-25T16:10:48.324Z,12.8
2022-08-25T16:11:56.865Z,12.9
2022-08-25T16:12:47.906Z,10.3
2022-08-25T16:13:48.650Z,10.5
2022-08-25T16:19:48.401Z,9.5
2022-08-25T16:20:50.084Z,8.9
2022-08-25T16:21:48.042Z,11.4
2022-08-25T16:22:48.579Z,6.9
2022-08-25T16:23:49.408Z,7.2
2022-08-25T16:24:48.121Z,10.0
2022-08-25T16:25:49.767Z,8.4
2022-08-25T16:26:48.460Z,7.6
2022-08-25T16:27:48.017Z,9.5
2022-08-25T16:28:47.950Z,13.2
2022-08-25T16:30:52.481Z,13.4